sensor_id;sensor_type;location;lat;lon;timestamp;P1;durP1;ratioP1;P2;durP2;ratioP2
24216;SDS011;12356;49.386;8.688;2023-04-24T00:00:47;0.80;;;0.80;;
24216;SDS011;12356;49.386;8.688;2023-04-24T00:03:18;3.63;;;0.90;;
24216;SDS011;12356;49.386;8.688;2023-04-24T00:08:22;1.48;;;0.80;;
24216;SDS011;12356;49.386;8.688;2023-04-24T00:10:54;1.67;;;0.98;;
24216;SDS011;12356;49.386;8.688;2023-04-24T00:13:24;4.20;;;0.90;;
24216;SDS011;12356;49.386;8.688;2023-04-24T00:15:55;3.33;;;1.00;;
24216;SDS011;12356;49.386;8.688;2023-04-24T00:18:26;3.85;;;0.90;;
24216;SDS011;12356;49.386;8.688;2023-04-24T00:20:56;1.90;;;0.95;;
24216;SDS011;12356;49.386;8.688;2023-04-24T00:23:27;2.78;;;1.13;;
24216;SDS011;12356;49.386;8.688;2023-04-24T00:25:57;3.05;;;0.93;;
24216;SDS011;12356;49.386;8.688;2023-04-24T00:28:29;1.20;;;0.90;;
24216;SDS011;12356;49.386;8.688;2023-04-24T00:31:00;3.35;;;0.90;;
24216;SDS011;12356;49.386;8.688;2023-04-24T00:33:31;2.58;;;1.08;;
24216;SDS011;12356;49.386;8.688;2023-04-24T00:36:01;2.17;;;0.88;;
24216;SDS011;12356;49.386;8.688;2023-04-24T00:38:32;3.55;;;1.02;;
24216;SDS011;12356;49.386;8.688;2023-04-24T00:41:02;2.13;;;1.00;;
24216;SDS011;12356;49.386;8.688;2023-04-24T00:43:33;1.95;;;1.02;;
24216;SDS011;12356;49.386;8.688;2023-04-24T00:46:04;2.85;;;0.90;;
24216;SDS011;12356;49.386;8.688;2023-04-24T00:48:35;2.63;;;1.00;;
24216;SDS011;12356;49.386;8.688;2023-04-24T00:51:07;1.90;;;0.90;;
24216;SDS011;12356;49.386;8.688;2023-04-24T00:53:37;3.33;;;1.10;;
24216;SDS011;12356;49.386;8.688;2023-04-24T00:56:08;1.00;;;0.90;;
24216;SDS011;12356;49.386;8.688;2023-04-24T00:58:39;3.13;;;1.20;;
24216;SDS011;12356;49.386;8.688;2023-04-24T01:01:11;3.80;;;1.02;;
24216;SDS011;12356;49.386;8.688;2023-04-24T01:03:42;3.22;;;0.80;;
24216;SDS011;12356;49.386;8.688;2023-04-24T01:06:13;3.35;;;1.10;;
24216;SDS011;12356;49.386;8.688;2023-04-24T01:08:44;1.77;;;1.00;;
24216;SDS011;12356;49.386;8.688;2023-04-24T01:11:16;1.40;;;0.93;;
24216;SDS011;12356;49.386;8.688;2023-04-24T01:13:48;1.35;;;0.93;;
24216;SDS011;12356;49.386;8.688;2023-04-24T01:16:19;1.55;;;1.00;;
24216;SDS011;12356;49.386;8.688;2023-04-24T01:18:52;3.17;;;0.90;;
24216;SDS011;12356;49.386;8.688;2023-04-24T01:21:22;3.08;;;1.00;;
24216;SDS011;12356;49.386;8.688;2023-04-24T01:23:57;2.83;;;0.90;;
24216;SDS011;12356;49.386;8.688;2023-04-24T01:26:28;1.20;;;0.80;;
24216;SDS011;12356;49.386;8.688;2023-04-24T01:28:58;2.03;;;1.00;;
24216;SDS011;12356;49.386;8.688;2023-04-24T01:31:29;2.78;;;0.95;;
24216;SDS011;12356;49.386;8.688;2023-04-24T01:34:00;2.20;;;1.00;;
24216;SDS011;12356;49.386;8.688;2023-04-24T01:36:31;2.40;;;0.90;;
24216;SDS011;12356;49.386;8.688;2023-04-24T01:39:05;3.10;;;1.08;;
24216;SDS011;12356;49.386;8.688;2023-04-24T01:41:35;3.47;;;1.10;;
24216;SDS011;12356;49.386;8.688;2023-04-24T01:44:06;2.28;;;0.90;;
24216;SDS011;12356;49.386;8.688;2023-04-24T01:46:37;2.70;;;1.00;;
24216;SDS011;12356;49.386;8.688;2023-04-24T01:49:08;2.75;;;1.10;;
24216;SDS011;12356;49.386;8.688;2023-04-24T01:51:38;2.70;;;1.10;;
24216;SDS011;12356;49.386;8.688;2023-04-24T01:54:09;2.45;;;1.10;;
24216;SDS011;12356;49.386;8.688;2023-04-24T01:56:43;2.35;;;1.00;;
24216;SDS011;12356;49.386;8.688;2023-04-24T01:59:13;2.45;;;1.13;;
24216;SDS011;12356;49.386;8.688;2023-04-24T02:01:46;2.95;;;1.10;;
24216;SDS011;12356;49.386;8.688;2023-04-24T02:04:17;4.50;;;1.00;;
24216;SDS011;12356;49.386;8.688;2023-04-24T02:06:47;3.42;;;0.90;;
24216;SDS011;12356;49.386;8.688;2023-04-24T02:09:18;4.13;;;1.08;;
24216;SDS011;12356;49.386;8.688;2023-04-24T02:11:49;3.70;;;1.13;;
24216;SDS011;12356;49.386;8.688;2023-04-24T02:14:19;2.85;;;0.90;;
24216;SDS011;12356;49.386;8.688;2023-04-24T02:16:50;1.60;;;0.80;;
24216;SDS011;12356;49.386;8.688;2023-04-24T02:19:20;1.20;;;0.82;;
24216;SDS011;12356;49.386;8.688;2023-04-24T02:21:51;2.25;;;0.90;;
24216;SDS011;12356;49.386;8.688;2023-04-24T02:24:22;3.90;;;1.15;;
24216;SDS011;12356;49.386;8.688;2023-04-24T02:26:52;7.55;;;1.20;;
24216;SDS011;12356;49.386;8.688;2023-04-24T02:29:23;1.58;;;1.05;;
24216;SDS011;12356;49.386;8.688;2023-04-24T02:31:53;2.20;;;0.88;;
24216;SDS011;12356;49.386;8.688;2023-04-24T02:34:24;2.38;;;1.08;;
24216;SDS011;12356;49.386;8.688;2023-04-24T02:36:55;2.35;;;1.20;;
24216;SDS011;12356;49.386;8.688;2023-04-24T02:39:25;2.55;;;1.20;;
24216;SDS011;12356;49.386;8.688;2023-04-24T02:41:56;2.70;;;1.20;;
24216;SDS011;12356;49.386;8.688;2023-04-24T02:44:26;3.47;;;1.17;;
24216;SDS011;12356;49.386;8.688;2023-04-24T02:46:57;2.10;;;1.15;;
24216;SDS011;12356;49.386;8.688;2023-04-24T02:49:27;3.78;;;1.20;;
24216;SDS011;12356;49.386;8.688;2023-04-24T02:51:58;3.35;;;1.20;;
24216;SDS011;12356;49.386;8.688;2023-04-24T02:54:28;2.05;;;1.08;;
24216;SDS011;12356;49.386;8.688;2023-04-24T02:56:59;1.85;;;1.08;;
24216;SDS011;12356;49.386;8.688;2023-04-24T02:59:31;3.40;;;1.00;;
24216;SDS011;12356;49.386;8.688;2023-04-24T03:02:01;2.50;;;0.98;;
24216;SDS011;12356;49.386;8.688;2023-04-24T03:04:32;4.70;;;1.20;;
24216;SDS011;12356;49.386;8.688;2023-04-24T03:07:02;1.90;;;0.88;;
24216;SDS011;12356;49.386;8.688;2023-04-24T03:09:34;2.53;;;1.00;;
24216;SDS011;12356;49.386;8.688;2023-04-24T03:12:05;2.65;;;1.30;;
24216;SDS011;12356;49.386;8.688;2023-04-24T03:14:35;2.50;;;1.20;;
24216;SDS011;12356;49.386;8.688;2023-04-24T03:17:06;3.30;;;1.17;;
24216;SDS011;12356;49.386;8.688;2023-04-24T03:19:36;3.53;;;1.58;;
24216;SDS011;12356;49.386;8.688;2023-04-24T03:22:07;3.92;;;1.60;;
24216;SDS011;12356;49.386;8.688;2023-04-24T03:24:39;4.55;;;1.60;;
24216;SDS011;12356;49.386;8.688;2023-04-24T03:27:10;7.70;;;1.80;;
24216;SDS011;12356;49.386;8.688;2023-04-24T03:29:40;2.83;;;1.55;;
24216;SDS011;12356;49.386;8.688;2023-04-24T03:32:11;3.42;;;2.00;;
24216;SDS011;12356;49.386;8.688;2023-04-24T03:34:41;2.67;;;1.70;;
24216;SDS011;12356;49.386;8.688;2023-04-24T03:37:12;4.00;;;1.60;;
24216;SDS011;12356;49.386;8.688;2023-04-24T03:39:42;2.83;;;1.80;;
24216;SDS011;12356;49.386;8.688;2023-04-24T03:42:13;2.95;;;2.00;;
24216;SDS011;12356;49.386;8.688;2023-04-24T03:44:44;5.40;;;2.28;;
24216;SDS011;12356;49.386;8.688;2023-04-24T03:47:14;2.95;;;2.00;;
24216;SDS011;12356;49.386;8.688;2023-04-24T03:49:45;5.43;;;2.40;;
24216;SDS011;12356;49.386;8.688;2023-04-24T03:52:15;3.83;;;2.25;;
24216;SDS011;12356;49.386;8.688;2023-04-24T03:54:46;2.83;;;2.00;;
24216;SDS011;12356;49.386;8.688;2023-04-24T03:57:16;2.92;;;2.03;;
24216;SDS011;12356;49.386;8.688;2023-04-24T03:59:47;4.78;;;2.25;;
24216;SDS011;12356;49.386;8.688;2023-04-24T04:02:17;2.70;;;2.10;;
24216;SDS011;12356;49.386;8.688;2023-04-24T04:04:48;2.53;;;2.10;;
24216;SDS011;12356;49.386;8.688;2023-04-24T04:07:18;3.75;;;2.08;;
24216;SDS011;12356;49.386;8.688;2023-04-24T04:09:49;4.57;;;2.05;;
24216;SDS011;12356;49.386;8.688;2023-04-24T04:12:20;3.25;;;2.05;;
24216;SDS011;12356;49.386;8.688;2023-04-24T04:14:50;3.20;;;2.20;;
24216;SDS011;12356;49.386;8.688;2023-04-24T04:17:20;4.18;;;2.10;;
24216;SDS011;12356;49.386;8.688;2023-04-24T04:19:51;2.10;;;1.90;;
24216;SDS011;12356;49.386;8.688;2023-04-24T04:22:22;2.40;;;2.20;;
24216;SDS011;12356;49.386;8.688;2023-04-24T04:24:52;2.83;;;2.08;;
24216;SDS011;12356;49.386;8.688;2023-04-24T04:27:23;2.85;;;2.25;;
24216;SDS011;12356;49.386;8.688;2023-04-24T04:29:53;2.40;;;2.20;;
24216;SDS011;12356;49.386;8.688;2023-04-24T04:32:26;2.22;;;2.00;;
24216;SDS011;12356;49.386;8.688;2023-04-24T04:34:57;3.38;;;1.92;;
24216;SDS011;12356;49.386;8.688;2023-04-24T04:37:27;4.35;;;2.10;;
24216;SDS011;12356;49.386;8.688;2023-04-24T04:39:59;5.40;;;2.15;;
24216;SDS011;12356;49.386;8.688;2023-04-24T04:42:30;3.92;;;2.30;;
24216;SDS011;12356;49.386;8.688;2023-04-24T04:45:00;2.50;;;2.10;;
24216;SDS011;12356;49.386;8.688;2023-04-24T04:47:32;2.85;;;2.15;;
24216;SDS011;12356;49.386;8.688;2023-04-24T04:50:02;2.80;;;2.40;;
24216;SDS011;12356;49.386;8.688;2023-04-24T04:55:06;6.50;;;2.40;;
24216;SDS011;12356;49.386;8.688;2023-04-24T04:57:37;5.85;;;2.50;;
24216;SDS011;12356;49.386;8.688;2023-04-24T05:00:08;3.40;;;2.35;;
24216;SDS011;12356;49.386;8.688;2023-04-24T05:02:40;2.97;;;2.70;;
24216;SDS011;12356;49.386;8.688;2023-04-24T05:05:11;5.50;;;3.00;;
24216;SDS011;12356;49.386;8.688;2023-04-24T05:07:41;4.03;;;2.60;;
24216;SDS011;12356;49.386;8.688;2023-04-24T05:10:12;5.07;;;2.65;;
24216;SDS011;12356;49.386;8.688;2023-04-24T05:12:42;3.47;;;2.75;;
24216;SDS011;12356;49.386;8.688;2023-04-24T05:15:13;4.15;;;3.00;;
24216;SDS011;12356;49.386;8.688;2023-04-24T05:17:43;4.72;;;2.88;;
24216;SDS011;12356;49.386;8.688;2023-04-24T05:20:14;3.85;;;2.72;;
24216;SDS011;12356;49.386;8.688;2023-04-24T05:22:44;7.32;;;3.33;;
24216;SDS011;12356;49.386;8.688;2023-04-24T05:25:15;3.35;;;2.65;;
24216;SDS011;12356;49.386;8.688;2023-04-24T05:27:46;4.47;;;3.10;;
24216;SDS011;12356;49.386;8.688;2023-04-24T05:30:16;6.10;;;3.10;;
24216;SDS011;12356;49.386;8.688;2023-04-24T05:32:47;5.90;;;3.10;;
24216;SDS011;12356;49.386;8.688;2023-04-24T05:35:17;5.40;;;3.25;;
24216;SDS011;12356;49.386;8.688;2023-04-24T05:37:48;6.93;;;3.50;;
24216;SDS011;12356;49.386;8.688;2023-04-24T05:40:19;3.22;;;2.92;;
24216;SDS011;12356;49.386;8.688;2023-04-24T05:42:49;4.03;;;3.60;;
24216;SDS011;12356;49.386;8.688;2023-04-24T05:45:20;4.00;;;3.58;;
24216;SDS011;12356;49.386;8.688;2023-04-24T05:47:50;4.15;;;3.53;;
24216;SDS011;12356;49.386;8.688;2023-04-24T05:50:22;6.60;;;3.92;;
24216;SDS011;12356;49.386;8.688;2023-04-24T05:52:53;5.30;;;3.63;;
24216;SDS011;12356;49.386;8.688;2023-04-24T05:55:24;6.40;;;4.10;;
24216;SDS011;12356;49.386;8.688;2023-04-24T05:57:55;5.65;;;4.30;;
24216;SDS011;12356;49.386;8.688;2023-04-24T06:00:26;6.68;;;4.20;;
24216;SDS011;12356;49.386;8.688;2023-04-24T06:02:56;5.45;;;4.07;;
24216;SDS011;12356;49.386;8.688;2023-04-24T06:05:27;5.95;;;4.78;;
24216;SDS011;12356;49.386;8.688;2023-04-24T06:07:58;6.43;;;4.82;;
24216;SDS011;12356;49.386;8.688;2023-04-24T06:10:28;6.97;;;4.68;;
24216;SDS011;12356;49.386;8.688;2023-04-24T06:12:59;8.25;;;4.97;;
24216;SDS011;12356;49.386;8.688;2023-04-24T06:15:32;6.20;;;4.82;;
24216;SDS011;12356;49.386;8.688;2023-04-24T06:18:03;6.43;;;4.55;;
24216;SDS011;12356;49.386;8.688;2023-04-24T06:20:33;7.97;;;5.00;;
24216;SDS011;12356;49.386;8.688;2023-04-24T06:23:04;4.95;;;4.45;;
24216;SDS011;12356;49.386;8.688;2023-04-24T06:25:35;6.07;;;4.50;;
24216;SDS011;12356;49.386;8.688;2023-04-24T06:28:05;6.25;;;4.70;;
24216;SDS011;12356;49.386;8.688;2023-04-24T06:30:36;7.50;;;4.72;;
24216;SDS011;12356;49.386;8.688;2023-04-24T06:33:06;6.78;;;4.50;;
24216;SDS011;12356;49.386;8.688;2023-04-24T06:35:37;6.57;;;4.97;;
24216;SDS011;12356;49.386;8.688;2023-04-24T06:38:10;6.97;;;4.50;;
24216;SDS011;12356;49.386;8.688;2023-04-24T06:40:41;6.78;;;4.93;;
24216;SDS011;12356;49.386;8.688;2023-04-24T06:43:11;5.30;;;4.40;;
24216;SDS011;12356;49.386;8.688;2023-04-24T06:45:42;5.57;;;4.40;;
24216;SDS011;12356;49.386;8.688;2023-04-24T06:48:13;6.65;;;4.30;;
24216;SDS011;12356;49.386;8.688;2023-04-24T06:50:45;7.70;;;4.20;;
24216;SDS011;12356;49.386;8.688;2023-04-24T06:53:16;5.80;;;4.00;;
24216;SDS011;12356;49.386;8.688;2023-04-24T06:55:47;6.75;;;4.10;;
24216;SDS011;12356;49.386;8.688;2023-04-24T06:58:18;6.85;;;4.00;;
24216;SDS011;12356;49.386;8.688;2023-04-24T07:00:48;6.60;;;3.90;;
24216;SDS011;12356;49.386;8.688;2023-04-24T07:03:19;6.30;;;3.90;;
24216;SDS011;12356;49.386;8.688;2023-04-24T07:05:50;5.88;;;3.70;;
24216;SDS011;12356;49.386;8.688;2023-04-24T07:08:21;5.28;;;3.38;;
24216;SDS011;12356;49.386;8.688;2023-04-24T07:10:52;4.55;;;3.55;;
24216;SDS011;12356;49.386;8.688;2023-04-24T07:13:22;5.22;;;3.50;;
24216;SDS011;12356;49.386;8.688;2023-04-24T07:15:53;8.77;;;4.05;;
24216;SDS011;12356;49.386;8.688;2023-04-24T07:18:25;4.95;;;3.65;;
24216;SDS011;12356;49.386;8.688;2023-04-24T07:20:55;2.92;;;2.30;;
24216;SDS011;12356;49.386;8.688;2023-04-24T07:23:26;5.35;;;2.50;;
24216;SDS011;12356;49.386;8.688;2023-04-24T07:25:57;4.80;;;2.15;;
24216;SDS011;12356;49.386;8.688;2023-04-24T07:28:28;4.57;;;2.00;;
24216;SDS011;12356;49.386;8.688;2023-04-24T07:31:01;2.47;;;2.00;;
24216;SDS011;12356;49.386;8.688;2023-04-24T07:33:31;2.53;;;1.90;;
24216;SDS011;12356;49.386;8.688;2023-04-24T07:36:02;2.20;;;2.00;;
24216;SDS011;12356;49.386;8.688;2023-04-24T07:38:33;4.38;;;2.03;;
24216;SDS011;12356;49.386;8.688;2023-04-24T07:41:03;2.67;;;2.00;;
24216;SDS011;12356;49.386;8.688;2023-04-24T07:43:34;3.40;;;2.20;;
24216;SDS011;12356;49.386;8.688;2023-04-24T07:46:05;2.95;;;2.10;;
24216;SDS011;12356;49.386;8.688;2023-04-24T07:48:37;2.70;;;2.30;;
24216;SDS011;12356;49.386;8.688;2023-04-24T07:51:07;3.00;;;2.42;;
24216;SDS011;12356;49.386;8.688;2023-04-24T07:53:41;3.70;;;2.33;;
24216;SDS011;12356;49.386;8.688;2023-04-24T07:56:12;3.07;;;2.50;;
24216;SDS011;12356;49.386;8.688;2023-04-24T07:58:43;3.65;;;2.60;;
24216;SDS011;12356;49.386;8.688;2023-04-24T08:01:13;3.63;;;2.47;;
24216;SDS011;12356;49.386;8.688;2023-04-24T08:03:44;3.10;;;2.50;;
24216;SDS011;12356;49.386;8.688;2023-04-24T08:06:14;3.67;;;2.80;;
24216;SDS011;12356;49.386;8.688;2023-04-24T08:08:45;5.15;;;2.63;;
24216;SDS011;12356;49.386;8.688;2023-04-24T08:11:15;3.78;;;2.42;;
24216;SDS011;12356;49.386;8.688;2023-04-24T08:13:46;3.33;;;2.92;;
24216;SDS011;12356;49.386;8.688;2023-04-24T08:16:16;4.30;;;3.10;;
24216;SDS011;12356;49.386;8.688;2023-04-24T08:18:47;4.43;;;3.13;;
24216;SDS011;12356;49.386;8.688;2023-04-24T08:21:18;4.65;;;2.67;;
24216;SDS011;12356;49.386;8.688;2023-04-24T08:23:49;3.40;;;2.90;;
24216;SDS011;12356;49.386;8.688;2023-04-24T08:26:20;5.03;;;2.92;;
24216;SDS011;12356;49.386;8.688;2023-04-24T08:28:50;3.75;;;2.58;;
24216;SDS011;12356;49.386;8.688;2023-04-24T08:31:21;4.10;;;2.70;;
24216;SDS011;12356;49.386;8.688;2023-04-24T08:33:52;3.80;;;2.67;;
24216;SDS011;12356;49.386;8.688;2023-04-24T08:36:23;4.55;;;2.50;;
24216;SDS011;12356;49.386;8.688;2023-04-24T08:38:53;3.38;;;2.78;;
24216;SDS011;12356;49.386;8.688;2023-04-24T08:41:24;4.55;;;2.85;;
24216;SDS011;12356;49.386;8.688;2023-04-24T08:43:56;4.17;;;2.90;;
24216;SDS011;12356;49.386;8.688;2023-04-24T08:46:29;3.47;;;2.60;;
24216;SDS011;12356;49.386;8.688;2023-04-24T08:49:00;3.60;;;2.25;;
24216;SDS011;12356;49.386;8.688;2023-04-24T08:51:32;2.50;;;2.03;;
24216;SDS011;12356;49.386;8.688;2023-04-24T08:54:03;2.65;;;2.17;;
24216;SDS011;12356;49.386;8.688;2023-04-24T08:56:35;3.08;;;1.88;;
24216;SDS011;12356;49.386;8.688;2023-04-24T08:59:09;3.47;;;2.08;;
24216;SDS011;12356;49.386;8.688;2023-04-24T09:01:41;5.37;;;2.10;;
24216;SDS011;12356;49.386;8.688;2023-04-24T09:04:12;3.15;;;2.33;;
24216;SDS011;12356;49.386;8.688;2023-04-24T09:06:46;3.70;;;2.30;;
24216;SDS011;12356;49.386;8.688;2023-04-24T09:09:18;7.25;;;2.65;;
24216;SDS011;12356;49.386;8.688;2023-04-24T09:11:50;3.47;;;2.20;;
24216;SDS011;12356;49.386;8.688;2023-04-24T09:14:23;2.90;;;2.40;;
24216;SDS011;12356;49.386;8.688;2023-04-24T09:16:54;2.92;;;2.47;;
24216;SDS011;12356;49.386;8.688;2023-04-24T09:19:24;3.28;;;2.58;;
24216;SDS011;12356;49.386;8.688;2023-04-24T09:21:55;3.17;;;2.40;;
24216;SDS011;12356;49.386;8.688;2023-04-24T09:24:26;2.08;;;1.88;;
24216;SDS011;12356;49.386;8.688;2023-04-24T09:26:57;4.00;;;2.22;;
24216;SDS011;12356;49.386;8.688;2023-04-24T09:29:28;4.35;;;2.53;;
24216;SDS011;12356;49.386;8.688;2023-04-24T09:31:59;7.10;;;2.80;;
24216;SDS011;12356;49.386;8.688;2023-04-24T09:34:48;4.10;;;2.35;;
24216;SDS011;12356;49.386;8.688;2023-04-24T09:37:27;3.28;;;2.03;;
24216;SDS011;12356;49.386;8.688;2023-04-24T09:40:17;3.78;;;2.38;;
24216;SDS011;12356;49.386;8.688;2023-04-24T09:42:53;2.13;;;1.90;;
24216;SDS011;12356;49.386;8.688;2023-04-24T09:45:36;2.88;;;2.00;;
24216;SDS011;12356;49.386;8.688;2023-04-24T09:48:10;3.72;;;2.40;;
24216;SDS011;12356;49.386;8.688;2023-04-24T09:50:45;2.17;;;1.98;;
24216;SDS011;12356;49.386;8.688;2023-04-24T09:53:16;5.07;;;2.17;;
24216;SDS011;12356;49.386;8.688;2023-04-24T09:55:54;5.68;;;2.55;;
24216;SDS011;12356;49.386;8.688;2023-04-24T09:58:25;2.88;;;2.15;;
24216;SDS011;12356;49.386;8.688;2023-04-24T10:00:56;4.63;;;2.30;;
24216;SDS011;12356;49.386;8.688;2023-04-24T10:03:29;3.13;;;2.83;;
24216;SDS011;12356;49.386;8.688;2023-04-24T10:06:01;5.10;;;3.55;;
24216;SDS011;12356;49.386;8.688;2023-04-24T10:08:38;5.90;;;2.97;;
24216;SDS011;12356;49.386;8.688;2023-04-24T10:11:08;3.70;;;3.08;;
24216;SDS011;12356;49.386;8.688;2023-04-24T10:13:41;5.05;;;3.55;;
24216;SDS011;12356;49.386;8.688;2023-04-24T10:16:11;3.85;;;3.13;;
24216;SDS011;12356;49.386;8.688;2023-04-24T10:18:42;5.72;;;3.55;;
24216;SDS011;12356;49.386;8.688;2023-04-24T10:21:14;3.17;;;2.88;;
24216;SDS011;12356;49.386;8.688;2023-04-24T10:23:46;4.55;;;2.92;;
24216;SDS011;12356;49.386;8.688;2023-04-24T10:26:17;5.60;;;3.53;;
24216;SDS011;12356;49.386;8.688;2023-04-24T10:28:50;4.82;;;3.67;;
24216;SDS011;12356;49.386;8.688;2023-04-24T10:31:22;5.03;;;3.40;;
24216;SDS011;12356;49.386;8.688;2023-04-24T10:33:52;4.18;;;3.15;;
24216;SDS011;12356;49.386;8.688;2023-04-24T10:36:24;3.78;;;2.58;;
24216;SDS011;12356;49.386;8.688;2023-04-24T10:38:56;3.60;;;2.67;;
24216;SDS011;12356;49.386;8.688;2023-04-24T10:41:30;4.30;;;2.78;;
24216;SDS011;12356;49.386;8.688;2023-04-24T10:44:04;3.67;;;2.70;;
24216;SDS011;12356;49.386;8.688;2023-04-24T10:46:37;4.28;;;2.55;;
24216;SDS011;12356;49.386;8.688;2023-04-24T10:49:08;3.05;;;1.88;;
24216;SDS011;12356;49.386;8.688;2023-04-24T10:54:26;5.22;;;2.55;;
24216;SDS011;12356;49.386;8.688;2023-04-24T11:02:49;3.97;;;3.20;;
24216;SDS011;12356;49.386;8.688;2023-04-24T11:05:49;4.90;;;2.90;;
24216;SDS011;12356;49.386;8.688;2023-04-24T11:11:15;5.32;;;3.28;;
24216;SDS011;12356;49.386;8.688;2023-04-24T11:16:30;4.40;;;3.40;;
24216;SDS011;12356;49.386;8.688;2023-04-24T11:19:05;6.38;;;3.60;;
24216;SDS011;12356;49.386;8.688;2023-04-24T11:24:26;5.10;;;3.78;;
24216;SDS011;12356;49.386;8.688;2023-04-24T11:29:44;5.68;;;3.58;;
24216;SDS011;12356;49.386;8.688;2023-04-24T11:37:39;6.45;;;3.33;;
24216;SDS011;12356;49.386;8.688;2023-04-24T11:40:16;4.28;;;3.60;;
24216;SDS011;12356;49.386;8.688;2023-04-24T11:42:49;4.30;;;3.67;;
24216;SDS011;12356;49.386;8.688;2023-04-24T11:45:24;8.40;;;3.55;;
24216;SDS011;12356;49.386;8.688;2023-04-24T11:47:57;7.18;;;3.30;;
24216;SDS011;12356;49.386;8.688;2023-04-24T11:50:28;5.97;;;3.50;;
24216;SDS011;12356;49.386;8.688;2023-04-24T11:52:59;8.13;;;4.10;;
24216;SDS011;12356;49.386;8.688;2023-04-24T11:55:30;6.47;;;3.80;;
24216;SDS011;12356;49.386;8.688;2023-04-24T11:58:01;6.45;;;3.92;;
24216;SDS011;12356;49.386;8.688;2023-04-24T12:00:32;7.65;;;3.88;;
24216;SDS011;12356;49.386;8.688;2023-04-24T12:03:09;6.00;;;3.88;;
24216;SDS011;12356;49.386;8.688;2023-04-24T12:05:41;5.13;;;3.80;;
24216;SDS011;12356;49.386;8.688;2023-04-24T12:08:11;5.40;;;3.70;;
24216;SDS011;12356;49.386;8.688;2023-04-24T12:10:56;4.80;;;3.53;;
24216;SDS011;12356;49.386;8.688;2023-04-24T12:13:27;5.90;;;4.30;;
24216;SDS011;12356;49.386;8.688;2023-04-24T12:15:58;5.60;;;3.78;;
24216;SDS011;12356;49.386;8.688;2023-04-24T12:18:28;5.47;;;3.60;;
24216;SDS011;12356;49.386;8.688;2023-04-24T12:21:18;5.00;;;4.13;;
24216;SDS011;12356;49.386;8.688;2023-04-24T12:23:50;8.77;;;4.20;;
24216;SDS011;12356;49.386;8.688;2023-04-24T12:26:24;5.13;;;3.67;;
24216;SDS011;12356;49.386;8.688;2023-04-24T12:28:55;6.00;;;3.95;;
24216;SDS011;12356;49.386;8.688;2023-04-24T12:31:33;5.60;;;4.00;;
24216;SDS011;12356;49.386;8.688;2023-04-24T12:34:03;7.85;;;4.40;;
24216;SDS011;12356;49.386;8.688;2023-04-24T12:36:35;4.72;;;3.70;;
24216;SDS011;12356;49.386;8.688;2023-04-24T12:39:13;5.53;;;3.70;;
24216;SDS011;12356;49.386;8.688;2023-04-24T12:41:55;5.30;;;3.70;;
24216;SDS011;12356;49.386;8.688;2023-04-24T12:44:32;7.50;;;3.78;;
24216;SDS011;12356;49.386;8.688;2023-04-24T12:47:04;6.10;;;3.80;;
24216;SDS011;12356;49.386;8.688;2023-04-24T12:49:35;5.35;;;3.90;;
24216;SDS011;12356;49.386;8.688;2023-04-24T12:52:05;5.55;;;3.90;;
24216;SDS011;12356;49.386;8.688;2023-04-24T12:54:36;6.88;;;3.90;;
24216;SDS011;12356;49.386;8.688;2023-04-24T12:57:06;4.93;;;3.58;;
24216;SDS011;12356;49.386;8.688;2023-04-24T12:59:37;5.80;;;3.90;;
24216;SDS011;12356;49.386;8.688;2023-04-24T13:02:09;4.60;;;3.75;;
24216;SDS011;12356;49.386;8.688;2023-04-24T13:04:40;5.50;;;3.40;;
24216;SDS011;12356;49.386;8.688;2023-04-24T13:07:11;5.00;;;3.75;;
24216;SDS011;12356;49.386;8.688;2023-04-24T13:09:43;7.60;;;3.70;;
24216;SDS011;12356;49.386;8.688;2023-04-24T13:12:14;8.15;;;3.83;;
24216;SDS011;12356;49.386;8.688;2023-04-24T13:14:45;4.57;;;3.60;;
24216;SDS011;12356;49.386;8.688;2023-04-24T13:17:16;4.38;;;3.63;;
24216;SDS011;12356;49.386;8.688;2023-04-24T13:19:49;6.85;;;3.70;;
24216;SDS011;12356;49.386;8.688;2023-04-24T13:22:20;4.47;;;3.70;;
24216;SDS011;12356;49.386;8.688;2023-04-24T13:24:51;5.05;;;3.47;;
24216;SDS011;12356;49.386;8.688;2023-04-24T13:27:22;5.45;;;3.58;;
24216;SDS011;12356;49.386;8.688;2023-04-24T13:29:52;6.45;;;3.80;;
24216;SDS011;12356;49.386;8.688;2023-04-24T13:32:23;4.60;;;3.40;;
24216;SDS011;12356;49.386;8.688;2023-04-24T13:34:53;5.20;;;3.50;;
24216;SDS011;12356;49.386;8.688;2023-04-24T13:37:24;5.07;;;3.72;;
24216;SDS011;12356;49.386;8.688;2023-04-24T13:39:54;4.57;;;3.60;;
24216;SDS011;12356;49.386;8.688;2023-04-24T13:42:25;7.70;;;3.75;;
24216;SDS011;12356;49.386;8.688;2023-04-24T13:44:55;7.15;;;3.67;;
24216;SDS011;12356;49.386;8.688;2023-04-24T13:47:26;5.88;;;3.65;;
24216;SDS011;12356;49.386;8.688;2023-04-24T13:49:57;9.10;;;3.67;;
24216;SDS011;12356;49.386;8.688;2023-04-24T13:52:27;6.47;;;3.38;;
24216;SDS011;12356;49.386;8.688;2023-04-24T13:54:58;5.13;;;3.50;;
24216;SDS011;12356;49.386;8.688;2023-04-24T13:57:28;4.93;;;3.60;;
24216;SDS011;12356;49.386;8.688;2023-04-24T14:00:00;5.22;;;3.30;;
24216;SDS011;12356;49.386;8.688;2023-04-24T14:02:33;4.10;;;3.50;;
24216;SDS011;12356;49.386;8.688;2023-04-24T14:05:04;7.05;;;3.35;;
24216;SDS011;12356;49.386;8.688;2023-04-24T14:07:35;4.73;;;3.30;;
24216;SDS011;12356;49.386;8.688;2023-04-24T14:10:06;5.75;;;3.45;;
24216;SDS011;12356;49.386;8.688;2023-04-24T14:12:37;9.50;;;3.83;;
24216;SDS011;12356;49.386;8.688;2023-04-24T14:15:08;6.03;;;3.45;;
24216;SDS011;12356;49.386;8.688;2023-04-24T14:17:39;4.00;;;3.23;;
24216;SDS011;12356;49.386;8.688;2023-04-24T14:22:43;5.38;;;3.28;;
24216;SDS011;12356;49.386;8.688;2023-04-24T14:25:13;4.10;;;3.38;;
24216;SDS011;12356;49.386;8.688;2023-04-24T14:27:45;5.63;;;3.38;;
24216;SDS011;12356;49.386;8.688;2023-04-24T14:30:17;5.05;;;3.40;;
24216;SDS011;12356;49.386;8.688;2023-04-24T14:32:48;5.30;;;3.60;;
24216;SDS011;12356;49.386;8.688;2023-04-24T14:35:19;4.80;;;3.42;;
24216;SDS011;12356;49.386;8.688;2023-04-24T14:37:50;8.95;;;3.70;;
24216;SDS011;12356;49.386;8.688;2023-04-24T14:40:21;4.28;;;3.47;;
24216;SDS011;12356;49.386;8.688;2023-04-24T14:42:51;5.20;;;3.50;;
24216;SDS011;12356;49.386;8.688;2023-04-24T14:45:22;5.32;;;3.50;;
24216;SDS011;12356;49.386;8.688;2023-04-24T14:47:52;4.75;;;3.47;;
24216;SDS011;12356;49.386;8.688;2023-04-24T14:50:24;5.25;;;3.58;;
24216;SDS011;12356;49.386;8.688;2023-04-24T14:52:57;5.57;;;3.38;;
24216;SDS011;12356;49.386;8.688;2023-04-24T14:55:28;5.25;;;3.70;;
24216;SDS011;12356;49.386;8.688;2023-04-24T14:57:59;5.35;;;3.75;;
24216;SDS011;12356;49.386;8.688;2023-04-24T15:00:30;4.65;;;3.55;;
24216;SDS011;12356;49.386;8.688;2023-04-24T15:03:00;6.68;;;4.15;;
24216;SDS011;12356;49.386;8.688;2023-04-24T15:05:31;8.00;;;4.35;;
24216;SDS011;12356;49.386;8.688;2023-04-24T15:08:01;6.72;;;4.13;;
24216;SDS011;12356;49.386;8.688;2023-04-24T15:10:32;6.68;;;4.20;;
24216;SDS011;12356;49.386;8.688;2023-04-24T15:13:03;7.30;;;4.60;;
24216;SDS011;12356;49.386;8.688;2023-04-24T15:15:33;7.13;;;4.47;;
24216;SDS011;12356;49.386;8.688;2023-04-24T15:18:04;7.55;;;5.10;;
24216;SDS011;12356;49.386;8.688;2023-04-24T15:20:35;5.90;;;4.47;;
24216;SDS011;12356;49.386;8.688;2023-04-24T15:23:07;8.30;;;4.75;;
24216;SDS011;12356;49.386;8.688;2023-04-24T15:25:38;6.03;;;4.30;;
24216;SDS011;12356;49.386;8.688;2023-04-24T15:28:09;5.22;;;3.60;;
24216;SDS011;12356;49.386;8.688;2023-04-24T15:30:39;4.72;;;3.60;;
24216;SDS011;12356;49.386;8.688;2023-04-24T15:33:10;5.32;;;3.92;;
24216;SDS011;12356;49.386;8.688;2023-04-24T15:35:41;4.80;;;3.70;;
24216;SDS011;12356;49.386;8.688;2023-04-24T15:38:11;3.92;;;3.53;;
24216;SDS011;12356;49.386;8.688;2023-04-24T15:40:43;6.88;;;3.63;;
24216;SDS011;12356;49.386;8.688;2023-04-24T15:43:14;7.22;;;3.72;;
24216;SDS011;12356;49.386;8.688;2023-04-24T15:45:46;4.75;;;3.40;;